Time;durP1;ratioP1;P1;durP2;ratioP2;P2;SDS_P1;SDS_P2;PMS_P1;PMS_P2;Temp;Humidity;BMP_temperature;BMP_pressure;BME280_temperature;BME280_humidity;BME280_pressure;Samples;Min_cycle;Max_cycle;Signal;HPM_P1;HPM_P2
2024/04/13 00:01:51;;;;;;;3.33;3.03;;;;;;;;;;5440953;26;20525;-76
2024/04/13 00:04:17;;;;;;;2.73;2.50;;;;;;;;;;5448367;26;20463;-76
2024/04/13 00:06:46;;;;;;;4.03;2.70;;;;;;;;;;5439621;26;20479;-76
2024/04/13 00:09:12;;;;;;;3.57;3.37;;;;;;;;;;5424077;26;20472;-77
2024/04/13 00:11:41;;;;;;;4.10;3.13;;;;;;;;;;5439384;26;20814;-76
2024/04/13 00:14:10;;;;;;;3.30;3.10;;;;;;;;;;5429654;26;20490;-77
2024/04/13 00:16:38;;;;;;;3.30;3.10;;;;;;;;;;5443933;26;20626;-76
2024/04/13 00:19:05;;;;;;;4.10;3.70;;;;;;;;;;5440581;26;20459;-76
2024/04/13 00:21:34;;;;;;;3.23;2.87;;;;;;;;;;5447456;26;20483;-76
2024/04/13 00:24:00;;;;;;;6.03;2.43;;;;;;;;;;5429496;26;20468;-77
2024/04/13 00:26:29;;;;;;;3.20;3.00;;;;;;;;;;5445907;26;20526;-76
2024/04/13 00:28:55;;;;;;;2.77;2.60;;;;;;;;;;5445325;26;20531;-76
2024/04/13 00:31:27;;;;;;;3.30;3.10;;;;;;;;;;5435836;26;21013;-76
2024/04/13 00:33:53;;;;;;;2.77;2.00;;;;;;;;;;5426951;26;20483;-76
2024/04/13 00:36:22;;;;;;;3.63;3.40;;;;;;;;;;5429151;26;20596;-76
2024/04/13 00:38:48;;;;;;;2.50;2.40;;;;;;;;;;5440262;26;20469;-77
2024/04/13 00:41:18;;;;;;;4.30;2.93;;;;;;;;;;5445210;26;20553;-76
2024/04/13 00:43:45;;;;;;;2.97;2.77;;;;;;;;;;5440428;26;20469;-77
2024/04/13 00:46:16;;;;;;;3.13;2.83;;;;;;;;;;5442288;26;20479;-76
2024/04/13 00:48:48;;;;;;;3.40;3.17;;;;;;;;;;5437849;26;20484;-76
2024/04/13 00:51:18;;;;;;;2.63;2.43;;;;;;;;;;5447069;26;20593;-76
2024/04/13 00:53:44;;;;;;;2.80;2.60;;;;;;;;;;5435150;26;20912;-76
2024/04/13 00:56:14;;;;;;;3.10;2.90;;;;;;;;;;5438185;26;20568;-76
2024/04/13 00:58:41;;;;;;;5.73;3.80;;;;;;;;;;5428647;26;20922;-76
2024/04/13 01:01:10;;;;;;;2.93;2.73;;;;;;;;;;5446065;26;20487;-76
2024/04/13 01:03:38;;;;;;;3.00;2.60;;;;;;;;;;5418884;26;20527;-76
2024/04/13 01:06:10;;;;;;;2.13;2.03;;;;;;;;;;5434038;26;20855;-76
2024/04/13 01:08:36;;;;;;;2.80;2.63;;;;;;;;;;5427369;26;20522;-76
2024/04/13 01:11:06;;;;;;;4.13;3.13;;;;;;;;;;5439887;26;20471;-76
2024/04/13 01:13:33;;;;;;;2.80;2.60;;;;;;;;;;5413031;26;20491;-76
2024/04/13 01:16:01;;;;;;;4.00;3.70;;;;;;;;;;5435214;26;20479;-76
2024/04/13 01:18:29;;;;;;;2.50;2.40;;;;;;;;;;5444248;26;20476;-76
2024/04/13 01:21:00;;;;;;;2.60;2.40;;;;;;;;;;5422805;26;20585;-76
2024/04/13 01:23:30;;;;;;;2.80;2.60;;;;;;;;;;5424244;26;20527;-76
2024/04/13 01:26:02;;;;;;;3.27;2.67;;;;;;;;;;5438592;26;20559;-76
2024/04/13 01:28:30;;;;;;;2.27;2.17;;;;;;;;;;5444052;26;20479;-76
2024/04/13 01:30:59;;;;;;;2.97;2.83;;;;;;;;;;5440790;26;21205;-76
2024/04/13 01:33:26;;;;;;;2.67;2.47;;;;;;;;;;5444225;26;20474;-76
2024/04/13 01:35:59;;;;;;;4.20;2.87;;;;;;;;;;5436836;26;20483;-76
2024/04/13 01:38:25;;;;;;;2.80;2.60;;;;;;;;;;5430153;26;20465;-76
2024/04/13 01:40:54;;;;;;;2.40;2.20;;;;;;;;;;5425753;26;21030;-76
2024/04/13 01:43:23;;;;;;;3.73;2.60;;;;;;;;;;5444160;26;21029;-76
2024/04/13 01:45:52;;;;;;;2.80;2.70;;;;;;;;;;5429811;26;20547;-76
2024/04/13 01:48:18;;;;;;;3.10;2.80;;;;;;;;;;5415018;26;20831;-75
2024/04/13 01:50:47;;;;;;;2.67;2.47;;;;;;;;;;5413983;26;20582;-76
2024/04/13 01:53:13;;;;;;;2.43;2.33;;;;;;;;;;5414474;26;20829;-76
2024/04/13 01:55:42;;;;;;;2.40;2.30;;;;;;;;;;5415468;26;20472;-76
2024/04/13 01:58:08;;;;;;;2.33;2.13;;;;;;;;;;5414586;26;20531;-76
2024/04/13 02:00:41;;;;;;;3.30;2.77;;;;;;;;;;5415722;26;20461;-76
2024/04/13 02:03:07;;;;;;;2.80;2.70;;;;;;;;;;5415557;26;20621;-76
2024/04/13 02:05:37;;;;;;;2.70;2.37;;;;;;;;;;5422401;26;20470;-76
2024/04/13 02:08:07;;;;;;;3.80;3.60;;;;;;;;;;5451702;26;21019;-76
2024/04/13 02:10:34;;;;;;;2.60;2.43;;;;;;;;;;5451985;26;20463;-76
2024/04/13 02:13:06;;;;;;;3.33;3.00;;;;;;;;;;5451580;26;20460;-76
2024/04/13 02:15:32;;;;;;;3.37;3.17;;;;;;;;;;5451875;26;20458;-76
2024/04/13 02:18:03;;;;;;;2.97;2.70;;;;;;;;;;5451375;26;20470;-76
2024/04/13 02:20:30;;;;;;;2.90;2.70;;;;;;;;;;5452482;26;20578;-76
2024/04/13 02:22:58;;;;;;;2.73;2.60;;;;;;;;;;5451502;26;20518;-76
2024/04/13 02:25:25;;;;;;;2.90;2.70;;;;;;;;;;5451817;26;21084;-76
2024/04/13 02:27:53;;;;;;;2.73;2.63;;;;;;;;;;5451527;26;20560;-76
2024/04/13 02:30:20;;;;;;;2.90;2.70;;;;;;;;;;5451901;26;20702;-76
2024/04/13 02:32:48;;;;;;;5.27;3.50;;;;;;;;;;5451251;26;20463;-76
2024/04/13 02:35:17;;;;;;;3.20;2.60;;;;;;;;;;5451646;26;20466;-76
2024/04/13 02:37:46;;;;;;;2.67;2.47;;;;;;;;;;5451515;26;20586;-76
2024/04/13 02:40:16;;;;;;;3.23;2.57;;;;;;;;;;5451512;26;20458;-76
2024/04/13 02:42:45;;;;;;;2.43;2.27;;;;;;;;;;5450969;26;20463;-76
2024/04/13 02:45:14;;;;;;;4.00;2.97;;;;;;;;;;5451465;26;20466;-76
2024/04/13 02:47:43;;;;;;;2.93;2.63;;;;;;;;;;5451347;26;20531;-76
2024/04/13 02:50:09;;;;;;;3.00;2.70;;;;;;;;;;5451714;26;20454;-76
2024/04/13 02:52:40;;;;;;;3.93;2.73;;;;;;;;;;5449432;26;20467;-76
2024/04/13 02:55:07;;;;;;;3.10;2.90;;;;;;;;;;5451673;26;20471;-76
2024/04/13 02:57:36;;;;;;;3.67;3.27;;;;;;;;;;5451240;26;20532;-76
2024/04/13 03:00:03;;;;;;;3.23;2.90;;;;;;;;;;5451253;26;20527;-76
2024/04/13 03:02:31;;;;;;;3.07;2.73;;;;;;;;;;5450667;26;20519;-76
2024/04/13 03:04:59;;;;;;;2.47;2.33;;;;;;;;;;5451185;26;20466;-76
2024/04/13 03:07:29;;;;;;;3.00;2.70;;;;;;;;;;5451302;26;20478;-75
2024/04/13 03:09:57;;;;;;;3.97;3.70;;;;;;;;;;5451196;26;20864;-76
2024/04/13 03:12:26;;;;;;;3.07;2.87;;;;;;;;;;5450913;26;21193;-76
2024/04/13 03:14:52;;;;;;;3.10;2.80;;;;;;;;;;5451202;26;20523;-76
2024/04/13 03:17:21;;;;;;;2.97;2.77;;;;;;;;;;5451004;26;20924;-76
2024/04/13 03:19:47;;;;;;;2.90;2.70;;;;;;;;;;5450889;26;20513;-76
2024/04/13 03:22:18;;;;;;;3.30;3.00;;;;;;;;;;5450622;26;20471;-76
2024/04/13 03:24:44;;;;;;;3.90;2.93;;;;;;;;;;5449228;26;20467;-75
2024/04/13 03:27:15;;;;;;;3.67;2.83;;;;;;;;;;5449174;26;20475;-75
2024/04/13 03:29:42;;;;;;;3.77;3.47;;;;;;;;;;5445561;26;20527;-76
2024/04/13 03:32:10;;;;;;;3.67;3.37;;;;;;;;;;5448653;26;20467;-76
2024/04/13 03:34:37;;;;;;;3.40;3.10;;;;;;;;;;5450060;26;20536;-76
2024/04/13 03:37:07;;;;;;;2.97;2.77;;;;;;;;;;5424130;26;20574;-76
2024/04/13 03:39:36;;;;;;;2.97;2.87;;;;;;;;;;5444904;26;21036;-76
2024/04/13 03:42:05;;;;;;;2.70;2.50;;;;;;;;;;5440439;26;21313;-76
2024/04/13 03:44:33;;;;;;;3.57;3.37;;;;;;;;;;5435721;26;20527;-76
2024/04/13 03:47:02;;;;;;;2.97;2.77;;;;;;;;;;5450296;26;20966;-76
2024/04/13 03:49:29;;;;;;;2.90;2.70;;;;;;;;;;5435730;26;21043;-76
2024/04/13 03:51:58;;;;;;;3.00;2.80;;;;;;;;;;5450288;26;20471;-76
2024/04/13 03:54:25;;;;;;;5.27;4.00;;;;;;;;;;5450601;26;20538;-76
2024/04/13 03:56:54;;;;;;;4.33;3.40;;;;;;;;;;5450567;26;20475;-76
2024/04/13 03:59:20;;;;;;;3.13;2.73;;;;;;;;;;5450448;26;20467;-76
2024/04/13 04:01:52;;;;;;;2.73;2.60;;;;;;;;;;5450490;26;20996;-76
2024/04/13 04:04:18;;;;;;;3.13;2.93;;;;;;;;;;5450334;26;20462;-76
2024/04/13 04:06:47;;;;;;;3.40;3.10;;;;;;;;;;5450485;26;20515;-76
2024/04/13 04:09:13;;;;;;;3.70;3.40;;;;;;;;;;5450447;26;20463;-76
2024/04/13 04:11:43;;;;;;;3.27;2.97;;;;;;;;;;5450112;26;20463;-76
2024/04/13 04:14:09;;;;;;;2.80;2.67;;;;;;;;;;5450349;26;21060;-76
2024/04/13 04:16:38;;;;;;;3.20;3.00;;;;;;;;;;5450282;26;20473;-76
2024/04/13 04:19:08;;;;;;;4.30;3.60;;;;;;;;;;5450196;26;20470;-76
2024/04/13 04:21:38;;;;;;;3.20;2.80;;;;;;;;;;5445803;26;20471;-76
2024/04/13 04:24:04;;;;;;;5.77;3.53;;;;;;;;;;5440502;26;20478;-76
2024/04/13 04:26:33;;;;;;;2.93;2.73;;;;;;;;;;5449908;26;20478;-76
2024/04/13 04:28:59;;;;;;;3.10;2.87;;;;;;;;;;5450061;26;21135;-76
2024/04/13 04:31:28;;;;;;;3.70;3.40;;;;;;;;;;5450114;26;20537;-76
2024/04/13 04:33:55;;;;;;;4.13;3.83;;;;;;;;;;5449668;26;20462;-76
2024/04/13 04:36:27;;;;;;;4.00;3.70;;;;;;;;;;5450061;26;20471;-76
2024/04/13 04:38:53;;;;;;;3.93;3.30;;;;;;;;;;5449782;26;20976;-76
2024/04/13 04:41:22;;;;;;;4.53;4.17;;;;;;;;;;5449658;26;20466;-76
2024/04/13 04:43:48;;;;;;;4.60;3.60;;;;;;;;;;5449556;26;20470;-76
2024/04/13 04:46:17;;;;;;;3.93;3.60;;;;;;;;;;5449768;26;20474;-76
2024/04/13 04:48:47;;;;;;;7.23;3.40;;;;;;;;;;5449975;26;20466;-75
2024/04/13 04:51:16;;;;;;;5.23;3.63;;;;;;;;;;5449720;26;20466;-76
2024/04/13 04:53:44;;;;;;;3.60;3.27;;;;;;;;;;5449504;26;20467;-76
2024/04/13 04:56:15;;;;;;;3.63;3.33;;;;;;;;;;5449716;26;20545;-76
2024/04/13 04:58:41;;;;;;;3.83;3.03;;;;;;;;;;5449653;26;20466;-76
2024/04/13 05:01:10;;;;;;;3.70;3.40;;;;;;;;;;5449266;26;21714;-76
2024/04/13 05:03:36;;;;;;;3.90;3.70;;;;;;;;;;5449114;26;20470;-76
2024/04/13 05:06:05;;;;;;;4.57;4.17;;;;;;;;;;5449420;26;20944;-76
2024/04/13 05:08:31;;;;;;;4.73;4.33;;;;;;;;;;5449597;26;20513;-76
2024/04/13 05:11:03;;;;;;;4.47;4.13;;;;;;;;;;5449255;26;20822;-76
2024/04/13 05:13:29;;;;;;;4.37;4.07;;;;;;;;;;5448930;26;21094;-76
2024/04/13 05:15:58;;;;;;;4.83;4.00;;;;;;;;;;5451779;26;20571;-75
2024/04/13 05:18:24;;;;;;;6.10;3.47;;;;;;;;;;5452821;26;20459;-76
2024/04/13 05:20:53;;;;;;;4.90;4.53;;;;;;;;;;5452657;26;21004;-76
2024/04/13 05:23:19;;;;;;;3.47;2.77;;;;;;;;;;5452376;26;20530;-76
2024/04/13 05:25:48;;;;;;;4.40;3.00;;;;;;;;;;5452726;26;21027;-76
2024/04/13 05:28:20;;;;;;;11.60;4.00;;;;;;;;;;5437442;26;20524;-76
2024/04/13 05:30:56;;;;;;;6.03;3.00;;;;;;;;;;5452515;26;20462;-76
2024/04/13 05:33:22;;;;;;;4.70;4.17;;;;;;;;;;5452342;26;20579;-76
2024/04/13 05:35:51;;;;;;;6.60;4.17;;;;;;;;;;5452538;26;20470;-76
2024/04/13 05:38:17;;;;;;;4.70;4.30;;;;;;;;;;5452435;26;20825;-76
2024/04/13 05:40:46;;;;;;;5.20;3.93;;;;;;;;;;5452580;26;20470;-76
2024/04/13 05:43:12;;;;;;;4.60;4.20;;;;;;;;;;5452272;26;20470;-76
2024/04/13 05:45:43;;;;;;;5.00;4.60;;;;;;;;;;5452631;26;20474;-76
2024/04/13 05:48:10;;;;;;;5.07;4.20;;;;;;;;;;5452828;26;20475;-76
2024/04/13 05:50:38;;;;;;;3.83;3.53;;;;;;;;;;5452377;26;20524;-76
2024/04/13 05:53:05;;;;;;;6.03;4.60;;;;;;;;;;5451969;26;20494;-76
2024/04/13 05:55:33;;;;;;;7.40;4.30;;;;;;;;;;5452335;26;20526;-76
2024/04/13 05:58:00;;;;;;;5.60;5.10;;;;;;;;;;5452379;26;20529;-76
2024/04/13 06:00:28;;;;;;;4.00;3.70;;;;;;;;;;5451998;26;20466;-75
2024/04/13 06:02:57;;;;;;;4.30;4.00;;;;;;;;;;5452063;26;20864;-75
2024/04/13 06:05:26;;;;;;;4.17;3.87;;;;;;;;;;5452356;26;20951;-76
2024/04/13 06:07:52;;;;;;;4.13;3.60;;;;;;;;;;5452259;26;20539;-76
2024/04/13 06:10:21;;;;;;;4.57;3.87;;;;;;;;;;5452126;26;20530;-76
2024/04/13 06:12:48;;;;;;;5.70;3.50;;;;;;;;;;5451640;26;20529;-76
2024/04/13 06:15:17;;;;;;;4.00;3.40;;;;;;;;;;5452050;26;20475;-75
2024/04/13 06:17:43;;;;;;;5.20;3.90;;;;;;;;;;5451875;26;20885;-76
2024/04/13 06:20:15;;;;;;;5.30;3.80;;;;;;;;;;5451803;26;20596;-76
2024/04/13 06:22:41;;;;;;;9.43;4.17;;;;;;;;;;5451770;26;20467;-76
2024/04/13 06:25:11;;;;;;;4.33;3.90;;;;;;;;;;5451685;26;20471;-76
2024/04/13 06:27:39;;;;;;;3.90;3.60;;;;;;;;;;5452017;26;20593;-75
2024/04/13 06:30:08;;;;;;;4.57;3.97;;;;;;;;;;5451903;26;21083;-76
2024/04/13 06:32:36;;;;;;;5.33;3.83;;;;;;;;;;5451510;26;20514;-76
2024/04/13 06:35:08;;;;;;;6.20;4.33;;;;;;;;;;5452055;26;20475;-76
2024/04/13 06:37:37;;;;;;;7.80;4.00;;;;;;;;;;5450931;26;20580;-76
2024/04/13 06:40:06;;;;;;;4.40;4.10;;;;;;;;;;5451553;26;20475;-76
2024/04/13 06:42:36;;;;;;;5.47;4.13;;;;;;;;;;5451178;26;20463;-76
2024/04/13 06:45:02;;;;;;;5.97;3.73;;;;;;;;;;5451461;26;20463;-76
2024/04/13 06:47:31;;;;;;;3.87;3.60;;;;;;;;;;5451745;26;20904;-76
2024/04/13 06:49:57;;;;;;;5.43;4.10;;;;;;;;;;5451786;26;21061;-76
2024/04/13 06:52:26;;;;;;;5.73;4.07;;;;;;;;;;5441529;26;20597;-76
2024/04/13 06:54:55;;;;;;;3.43;3.13;;;;;;;;;;5415135;26;20895;-76
2024/04/13 06:57:24;;;;;;;4.60;4.20;;;;;;;;;;5414937;26;20477;-76
2024/04/13 06:59:50;;;;;;;6.27;4.63;;;;;;;;;;5415192;26;20515;-76
2024/04/13 07:02:20;;;;;;;6.97;5.23;;;;;;;;;;5414746;26;20468;-77
2024/04/13 07:04:46;;;;;;;4.80;4.30;;;;;;;;;;5415183;26;20586;-76
2024/04/13 07:07:15;;;;;;;7.37;4.40;;;;;;;;;;5414789;26;21087;-76
2024/04/13 07:09:41;;;;;;;5.07;4.30;;;;;;;;;;5415036;26;20522;-76
2024/04/13 07:12:13;;;;;;;8.87;3.43;;;;;;;;;;5414842;26;20470;-76
2024/04/13 07:14:39;;;;;;;5.13;4.47;;;;;;;;;;5448419;26;20530;-76
2024/04/13 07:17:08;;;;;;;3.77;3.47;;;;;;;;;;5449705;26;20478;-76
2024/04/13 07:19:34;;;;;;;4.33;3.97;;;;;;;;;;5447649;26;20857;-76
2024/04/13 07:22:03;;;;;;;3.60;3.30;;;;;;;;;;5448160;26;20475;-76
2024/04/13 07:24:29;;;;;;;3.60;3.00;;;;;;;;;;5428775;26;20466;-76
2024/04/13 07:26:58;;;;;;;6.27;3.40;;;;;;;;;;5421167;26;20475;-76
2024/04/13 07:29:27;;;;;;;4.60;3.70;;;;;;;;;;5436892;26;20523;-77
2024/04/13 07:31:56;;;;;;;4.80;4.40;;;;;;;;;;5426462;26;20814;-76
2024/04/13 07:34:22;;;;;;;3.43;3.13;;;;;;;;;;5417485;26;20468;-76
2024/04/13 07:36:51;;;;;;;3.87;3.53;;;;;;;;;;5426189;26;20815;-76
2024/04/13 07:39:17;;;;;;;4.70;4.40;;;;;;;;;;5433816;26;20517;-76
2024/04/13 07:41:46;;;;;;;5.23;4.00;;;;;;;;;;5438562;26;20483;-76
2024/04/13 07:44:13;;;;;;;3.97;3.03;;;;;;;;;;5443418;26;20467;-77
2024/04/13 07:46:45;;;;;;;3.33;3.07;;;;;;;;;;5434483;26;20490;-76
2024/04/13 07:49:11;;;;;;;5.80;3.63;;;;;;;;;;5448587;26;20471;-76
2024/04/13 07:51:39;;;;;;;3.30;3.00;;;;;;;;;;5449491;26;20593;-77
2024/04/13 07:54:06;;;;;;;4.13;3.03;;;;;;;;;;5438787;26;20468;-77
2024/04/13 07:56:34;;;;;;;3.60;3.00;;;;;;;;;;5434227;26;20487;-77
2024/04/13 07:59:01;;;;;;;2.63;2.43;;;;;;;;;;5446000;26;20586;-77
2024/04/13 08:01:29;;;;;;;3.47;2.77;;;;;;;;;;5447332;26;20550;-77
2024/04/13 08:03:58;;;;;;;3.20;3.00;;;;;;;;;;5446843;26;20529;-77
2024/04/13 08:06:28;;;;;;;3.07;2.87;;;;;;;;;;5449265;26;20591;-77
2024/04/13 08:08:55;;;;;;;2.93;2.63;;;;;;;;;;5435068;26;20538;-77
2024/04/13 08:11:23;;;;;;;6.30;2.70;;;;;;;;;;5443458;26;20517;-77
2024/04/13 08:13:50;;;;;;;4.00;3.20;;;;;;;;;;5420009;26;20477;-77
2024/04/13 08:16:18;;;;;;;5.07;3.40;;;;;;;;;;5428697;26;20487;-77
2024/04/13 08:18:45;;;;;;;4.97;4.53;;;;;;;;;;5440856;26;20511;-77
2024/04/13 08:21:16;;;;;;;5.20;4.43;;;;;;;;;;5433924;26;20586;-76
2024/04/13 08:23:42;;;;;;;5.20;3.43;;;;;;;;;;5436273;26;20521;-77
2024/04/13 08:26:11;;;;;;;3.53;3.10;;;;;;;;;;5435476;26;20569;-77
2024/04/13 08:28:37;;;;;;;3.67;2.83;;;;;;;;;;5432372;26;20540;-77
2024/04/13 08:31:06;;;;;;;4.40;3.53;;;;;;;;;;5442723;26;20577;-77
2024/04/13 08:33:33;;;;;;;3.70;3.47;;;;;;;;;;5447234;26;20585;-77
2024/04/13 08:36:05;;;;;;;3.70;3.00;;;;;;;;;;5448494;26;21037;-77
2024/04/13 08:38:34;;;;;;;2.70;2.50;;;;;;;;;;5443915;26;20587;-76
2024/04/13 08:41:05;;;;;;;5.30;3.00;;;;;;;;;;5431191;26;20514;-76
2024/04/13 08:43:32;;;;;;;4.10;3.67;;;;;;;;;;5444037;26;20511;-76
2024/04/13 08:46:03;;;;;;;3.93;3.63;;;;;;;;;;5444933;26;21009;-76
2024/04/13 08:48:29;;;;;;;3.30;2.80;;;;;;;;;;5448253;26;20478;-77
2024/04/13 08:51:00;;;;;;;7.53;3.47;;;;;;;;;;5445494;26;20475;-77
2024/04/13 08:53:27;;;;;;;4.23;3.07;;;;;;;;;;5439613;26;21110;-77
2024/04/13 08:55:59;;;;;;;3.60;2.93;;;;;;;;;;5443684;26;20590;-76
2024/04/13 08:58:27;;;;;;;3.63;3.30;;;;;;;;;;5429113;26;20534;-77
2024/04/13 09:00:59;;;;;;;5.60;3.30;;;;;;;;;;5437823;26;20800;-77
2024/04/13 09:03:25;;;;;;;3.90;3.10;;;;;;;;;;5442215;26;21026;-76
2024/04/13 09:05:54;;;;;;;3.47;3.17;;;;;;;;;;5436822;26;20476;-77
2024/04/13 09:08:22;;;;;;;4.40;3.77;;;;;;;;;;5424552;26;20471;-76
2024/04/13 09:10:52;;;;;;;2.97;2.77;;;;;;;;;;5441932;26;20523;-76
2024/04/13 09:13:21;;;;;;;3.83;3.40;;;;;;;;;;5416026;26;20465;-77
2024/04/13 09:15:49;;;;;;;3.93;2.90;;;;;;;;;;5432156;26;20876;-76
2024/04/13 09:18:16;;;;;;;3.80;3.50;;;;;;;;;;5440897;26;20609;-78
2024/04/13 09:20:45;;;;;;;2.80;2.60;;;;;;;;;;5418320;26;20959;-77
2024/04/13 09:23:11;;;;;;;2.90;2.70;;;;;;;;;;5440531;26;20931;-77
2024/04/13 09:25:40;;;;;;;3.50;3.20;;;;;;;;;;5444235;26;20478;-77
2024/04/13 09:28:06;;;;;;;3.33;2.90;;;;;;;;;;5426681;26;20774;-77
2024/04/13 09:30:38;;;;;;;3.50;3.03;;;;;;;;;;5446924;26;20520;-77
2024/04/13 09:33:06;;;;;;;3.17;2.53;;;;;;;;;;5428720;26;20518;-77
2024/04/13 09:35:35;;;;;;;4.73;3.47;;;;;;;;;;5434556;26;20545;-77
2024/04/13 09:38:01;;;;;;;3.97;2.70;;;;;;;;;;5424137;26;20532;-77
2024/04/13 09:40:31;;;;;;;3.43;3.13;;;;;;;;;;5434621;26;20910;-76
2024/04/13 09:42:57;;;;;;;4.20;3.50;;;;;;;;;;5414979;26;21358;-78
2024/04/13 09:45:27;;;;;;;3.83;3.53;;;;;;;;;;5416494;26;20577;-76
2024/04/13 09:47:59;;;;;;;3.50;2.90;;;;;;;;;;5430906;26;20525;-76
2024/04/13 09:50:29;;;;;;;5.47;3.87;;;;;;;;;;5433723;26;20483;-76
2024/04/13 09:52:58;;;;;;;4.53;2.87;;;;;;;;;;5421255;26;21075;-77
2024/04/13 09:55:27;;;;;;;4.10;3.47;;;;;;;;;;5431949;26;20566;-76
2024/04/13 09:57:53;;;;;;;14.10;4.30;;;;;;;;;;5439195;26;20537;-76
2024/04/13 10:00:22;;;;;;;2.80;2.60;;;;;;;;;;5419450;26;20480;-76
2024/04/13 10:02:48;;;;;;;3.33;3.03;;;;;;;;;;5442549;26;20476;-76
2024/04/13 10:05:20;;;;;;;3.33;3.03;;;;;;;;;;5424034;26;20488;-76
2024/04/13 10:07:46;;;;;;;5.33;3.30;;;;;;;;;;5449479;26;20867;-76
2024/04/13 10:10:16;;;;;;;2.80;2.60;;;;;;;;;;5449735;26;20478;-76
2024/04/13 10:12:44;;;;;;;3.67;2.87;;;;;;;;;;5427245;26;20475;-76
2024/04/13 10:15:13;;;;;;;3.40;2.50;;;;;;;;;;5449595;26;20567;-76
2024/04/13 10:17:40;;;;;;;3.40;2.63;;;;;;;;;;5450294;26;20948;-77
2024/04/13 10:20:10;;;;;;;2.73;2.37;;;;;;;;;;5439924;26;20478;-77
2024/04/13 10:22:38;;;;;;;3.00;2.70;;;;;;;;;;5429989;26;20467;-76
2024/04/13 10:25:08;;;;;;;2.57;2.47;;;;;;;;;;5418514;26;20571;-76
2024/04/13 10:27:34;;;;;;;2.97;2.77;;;;;;;;;;5414147;26;20866;-77
2024/04/13 10:30:03;;;;;;;3.47;3.27;;;;;;;;;;5426340;26;20480;-76
2024/04/13 10:32:30;;;;;;;3.40;2.67;;;;;;;;;;5446848;26;20908;-77
2024/04/13 10:35:09;;;;;;;2.73;2.53;;;;;;;;;;5414498;26;21219;-76
2024/04/13 10:37:35;;;;;;;3.17;2.90;;;;;;;;;;5428809;26;20462;-76
2024/04/13 10:40:08;;;;;;;3.37;2.20;;;;;;;;;;5415842;26;20838;-76
2024/04/13 10:42:34;;;;;;;4.80;2.60;;;;;;;;;;5432135;26;20470;-76
2024/04/13 10:45:04;;;;;;;3.13;2.50;;;;;;;;;;5442101;26;20479;-77
2024/04/13 10:47:30;;;;;;;3.80;3.00;;;;;;;;;;5449987;26;21149;-77
2024/04/13 10:50:00;;;;;;;2.43;2.23;;;;;;;;;;5423598;26;20862;-76
2024/04/13 10:52:27;;;;;;;4.60;2.83;;;;;;;;;;5413470;26;20478;-76
2024/04/13 10:54:59;;;;;;;96.80;14.50;;;;;;;;;;5414449;26;21008;-71
2024/04/13 10:57:28;;;;;;;6.03;3.37;;;;;;;;;;5414911;26;20593;-76
2024/04/13 10:59:56;;;;;;;5.47;2.53;;;;;;;;;;5414444;26;20951;-75
2024/04/13 11:02:23;;;;;;;2.80;2.60;;;;;;;;;;5413480;26;21007;-77
2024/04/13 11:04:51;;;;;;;2.40;2.10;;;;;;;;;;5414361;26;20475;-77
2024/04/13 11:07:18;;;;;;;2.70;2.50;;;;;;;;;;5414001;26;20538;-76
2024/04/13 11:09:47;;;;;;;5.60;2.50;;;;;;;;;;5414768;26;20521;-76
2024/04/13 11:12:13;;;;;;;3.93;2.87;;;;;;;;;;5413101;26;20515;-77
2024/04/13 11:14:46;;;;;;;3.90;2.20;;;;;;;;;;5413799;26;20523;-77
2024/04/13 11:17:12;;;;;;;3.63;2.23;;;;;;;;;;5413686;26;20483;-76
2024/04/13 11:19:41;;;;;;;2.70;2.50;;;;;;;;;;5414035;26;20945;-76
2024/04/13 11:22:09;;;;;;;2.37;2.10;;;;;;;;;;5413533;26;21087;-77
2024/04/13 11:24:38;;;;;;;2.80;2.60;;;;;;;;;;5413801;26;20456;-75
2024/04/13 11:27:05;;;;;;;3.83;2.40;;;;;;;;;;5413819;26;20480;-76
2024/04/13 11:29:35;;;;;;;3.60;2.87;;;;;;;;;;5413703;26;20555;-77
2024/04/13 11:32:04;;;;;;;2.20;2.00;;;;;;;;;;5413666;26;20470;-76
2024/04/13 11:34:34;;;;;;;3.53;1.70;;;;;;;;;;5413872;26;20585;-77
2024/04/13 11:37:01;;;;;;;3.23;2.17;;;;;;;;;;5415096;26;20520;-76
2024/04/13 11:39:30;;;;;;;2.33;2.13;;;;;;;;;;5449255;26;20813;-76
2024/04/13 11:42:01;;;;;;;1.97;1.87;;;;;;;;;;5435077;26;21121;-76
2024/04/13 11:44:30;;;;;;;2.53;1.80;;;;;;;;;;5434750;26;20512;-78
2024/04/13 11:46:56;;;;;;;2.17;1.73;;;;;;;;;;5442205;26;20465;-76
2024/04/13 11:49:27;;;;;;;2.13;1.80;;;;;;;;;;5441931;26;20486;-77
2024/04/13 11:51:54;;;;;;;2.20;1.67;;;;;;;;;;5449286;26;20854;-77
2024/04/13 11:54:24;;;;;;;3.13;2.70;;;;;;;;;;5449311;26;21059;-73
2024/04/13 11:56:50;;;;;;;1.70;1.60;;;;;;;;;;5449615;26;20895;-72
2024/04/13 11:59:19;;;;;;;2.17;1.97;;;;;;;;;;5449339;26;20465;-74
2024/04/13 12:01:45;;;;;;;4.80;1.93;;;;;;;;;;5448989;26;20514;-75
2024/04/13 12:04:15;;;;;;;3.23;2.00;;;;;;;;;;5449446;26;20469;-74
2024/04/13 12:06:44;;;;;;;1.93;1.83;;;;;;;;;;5448919;26;20481;-74
2024/04/13 12:09:13;;;;;;;3.77;2.00;;;;;;;;;;5426710;26;20477;-75
2024/04/13 12:11:39;;;;;;;2.03;1.93;;;;;;;;;;5438599;26;20472;-75
2024/04/13 12:14:08;;;;;;;1.93;1.50;;;;;;;;;;5448137;26;20471;-75
2024/04/13 12:16:34;;;;;;;4.07;3.20;;;;;;;;;;5438799;26;20524;-77
2024/04/13 12:19:03;;;;;;;5.27;1.60;;;;;;;;;;5448591;26;20476;-75
2024/04/13 12:21:30;;;;;;;2.03;1.87;;;;;;;;;;5422355;26;20467;-75
2024/04/13 12:24:03;;;;;;;1.60;1.50;;;;;;;;;;5425945;26;20487;-75
2024/04/13 12:26:29;;;;;;;2.90;1.50;;;;;;;;;;5441747;26;20820;-75
2024/04/13 12:28:58;;;;;;;2.90;1.80;;;;;;;;;;5447902;26;20476;-74
2024/04/13 12:31:25;;;;;;;2.80;1.60;;;;;;;;;;5435305;26;20482;-73
2024/04/13 12:33:53;;;;;;;2.17;1.30;;;;;;;;;;5441332;26;21147;-73
2024/04/13 12:36:20;;;;;;;1.30;1.20;;;;;;;;;;5444373;26;20885;-72
2024/04/13 12:38:48;;;;;;;4.40;1.77;;;;;;;;;;5438056;26;20568;-73
2024/04/13 12:41:17;;;;;;;2.80;1.93;;;;;;;;;;5447071;26;20540;-73
2024/04/13 12:43:48;;;;;;;2.00;1.90;;;;;;;;;;5422716;26;20482;-73
2024/04/13 12:46:14;;;;;;;2.60;1.77;;;;;;;;;;5447236;26;20530;-73
2024/04/13 12:48:43;;;;;;;3.33;1.70;;;;;;;;;;5431470;26;21045;-73
2024/04/13 12:51:10;;;;;;;4.07;1.90;;;;;;;;;;5442092;26;20488;-72
2024/04/13 12:53:39;;;;;;;2.77;1.70;;;;;;;;;;5453441;26;20893;-72
2024/04/13 12:56:06;;;;;;;1.80;1.70;;;;;;;;;;5419920;26;20531;-74
2024/04/13 12:58:37;;;;;;;2.30;1.80;;;;;;;;;;5430876;26;20589;-74
2024/04/13 13:01:04;;;;;;;1.73;1.53;;;;;;;;;;5433855;26;20877;-74
2024/04/13 13:03:32;;;;;;;1.40;1.30;;;;;;;;;;5419862;26;20481;-73
2024/04/13 13:05:59;;;;;;;1.33;1.23;;;;;;;;;;5422054;26;20480;-73
2024/04/13 13:08:29;;;;;;;1.57;1.47;;;;;;;;;;5420034;26;20532;-73
2024/04/13 13:10:55;;;;;;;2.33;2.13;;;;;;;;;;5437251;26;21178;-73
2024/04/13 13:13:24;;;;;;;1.83;1.73;;;;;;;;;;5430980;26;20606;-73
2024/04/13 13:15:53;;;;;;;2.10;1.90;;;;;;;;;;5440235;26;20510;-73
2024/04/13 13:18:22;;;;;;;1.83;1.73;;;;;;;;;;5435394;26;20556;-74
2024/04/13 13:20:48;;;;;;;1.60;1.50;;;;;;;;;;5424506;26;20518;-73
2024/04/13 13:23:17;;;;;;;1.27;1.23;;;;;;;;;;5435795;26;20552;-74
2024/04/13 13:25:43;;;;;;;1.73;1.63;;;;;;;;;;5438992;26;20539;-74
2024/04/13 13:28:12;;;;;;;1.87;1.60;;;;;;;;;;5436388;26;20486;-74
2024/04/13 13:30:40;;;;;;;1.50;1.40;;;;;;;;;;5429579;26;20475;-74
2024/04/13 13:33:12;;;;;;;1.60;1.50;;;;;;;;;;5434256;26;20575;-74
2024/04/13 13:35:40;;;;;;;1.57;1.47;;;;;;;;;;5414002;26;20476;-75
2024/04/13 13:38:10;;;;;;;1.87;1.77;;;;;;;;;;5434352;26;20614;-73
2024/04/13 13:40:36;;;;;;;2.00;1.83;;;;;;;;;;5440896;26;20482;-73
2024/04/13 13:43:06;;;;;;;1.60;1.50;;;;;;;;;;5448470;26;20887;-73
2024/04/13 13:45:32;;;;;;;1.60;1.50;;;;;;;;;;5436455;26;20514;-74
2024/04/13 13:48:00;;;;;;;2.80;1.63;;;;;;;;;;5440127;26;21091;-74
2024/04/13 13:50:29;;;;;;;2.60;2.40;;;;;;;;;;5425282;26;20481;-74
2024/04/13 13:52:59;;;;;;;1.93;1.83;;;;;;;;;;5445818;26;21158;-74
2024/04/13 13:55:25;;;;;;;2.10;1.90;;;;;;;;;;5427747;26;20556;-73
2024/04/13 13:57:54;;;;;;;2.20;1.97;;;;;;;;;;5430059;26;20487;-73
2024/04/13 14:00:20;;;;;;;1.87;1.77;;;;;;;;;;5439128;26;20900;-74
2024/04/13 14:02:49;;;;;;;1.63;1.53;;;;;;;;;;5448507;26;20918;-74
2024/04/13 14:05:15;;;;;;;2.00;1.50;;;;;;;;;;5434690;26;21021;-73
2024/04/13 14:07:47;;;;;;;1.90;1.70;;;;;;;;;;5446699;26;20542;-73
2024/04/13 14:10:15;;;;;;;1.93;1.73;;;;;;;;;;5449331;26;20483;-74
2024/04/13 14:12:46;;;;;;;3.20;2.43;;;;;;;;;;5442932;26;20479;-74
2024/04/13 14:15:12;;;;;;;7.30;6.80;;;;;;;;;;5426699;26;20481;-74
2024/04/13 14:17:42;;;;;;;3.63;3.20;;;;;;;;;;5431482;26;20495;-74
2024/04/13 14:20:08;;;;;;;1.77;1.43;;;;;;;;;;5429432;26;20480;-74
2024/04/13 14:22:40;;;;;;;1.33;1.33;;;;;;;;;;5434351;26;20483;-75
2024/04/13 14:25:09;;;;;;;10.60;7.93;;;;;;;;;;5447373;26;20483;-73
2024/04/13 14:27:37;;;;;;;2.90;2.70;;;;;;;;;;5433847;26;20485;-74
2024/04/13 14:30:04;;;;;;;3.10;2.90;;;;;;;;;;5447498;26;20483;-74
2024/04/13 14:32:33;;;;;;;2.43;2.00;;;;;;;;;;5432551;26;21235;-74
2024/04/13 14:34:59;;;;;;;3.13;2.53;;;;;;;;;;5436979;26;20977;-74
2024/04/13 14:37:28;;;;;;;3.07;2.80;;;;;;;;;;5439472;26;20538;-74
2024/04/13 14:39:55;;;;;;;1.90;1.80;;;;;;;;;;5447243;26;20520;-73
2024/04/13 14:42:26;;;;;;;2.93;1.80;;;;;;;;;;5432718;26;20488;-75
2024/04/13 14:44:52;;;;;;;2.30;2.10;;;;;;;;;;5436750;26;20488;-74
2024/04/13 14:47:21;;;;;;;1.33;1.30;;;;;;;;;;5435532;26;20603;-74
2024/04/13 14:49:48;;;;;;;2.00;1.50;;;;;;;;;;5433727;26;20534;-74